createdAt,value
2022-10-28T00:01:45.887Z,11.35
2022-10-28T00:04:43.277Z,11.30
2022-10-28T00:07:35.679Z,11.27
2022-10-28T00:11:03.043Z,11.23
2022-10-28T00:13:40.921Z,11.18
2022-10-28T00:16:27.628Z,11.23
2022-10-28T00:20:26.550Z,11.19
2022-10-28T00:22:47.088Z,11.16
2022-10-28T00:25:33.247Z,11.16
2022-10-28T00:28:30.935Z,11.12
2022-10-28T00:31:54.211Z,11.06
2022-10-28T00:34:32.987Z,11.01
2022-10-28T00:37:14.519Z,11.01
2022-10-28T00:39:46.320Z,11.04
2022-10-28T00:42:49.469Z,11.02
2022-10-28T00:45:49.957Z,10.98
2022-10-28T00:48:45.132Z,10.94
2022-10-28T01:00:30.602Z,10.78
2022-10-28T01:04:56.903Z,10.78
2022-10-28T01:07:36.793Z,10.82
2022-10-28T01:10:41.898Z,10.85
2022-10-28T01:14:15.312Z,10.91
2022-10-28T01:18:17.284Z,10.96
2022-10-28T01:21:26.298Z,10.98
2022-10-28T01:24:26.391Z,11.00
2022-10-28T01:27:56.876Z,11.03
2022-10-28T01:31:42.209Z,11.05
2022-10-28T01:34:43.253Z,11.07
2022-10-28T01:38:09.725Z,11.06
2022-10-28T01:41:48.572Z,11.01
2022-10-28T01:45:34.375Z,10.96
2022-10-28T01:51:42.080Z,10.93
2022-10-28T01:57:51.534Z,10.98
2022-10-28T02:01:00.443Z,11.00
2022-10-28T02:03:57.313Z,11.01
2022-10-28T02:06:43.148Z,11.04
2022-10-28T02:10:41.097Z,11.03
2022-10-28T02:13:45.753Z,10.91
2022-10-28T02:20:45.560Z,10.79
2022-10-28T02:24:21.687Z,10.72
2022-10-28T02:27:40.392Z,10.68
2022-10-28T02:30:37.693Z,10.67
2022-10-28T02:33:43.321Z,10.64
2022-10-28T02:36:52.699Z,10.64
2022-10-28T02:39:53.756Z,10.69
2022-10-28T02:43:00.210Z,10.74
2022-10-28T02:45:57.745Z,10.78
2022-10-28T02:49:55.775Z,10.82
2022-10-28T02:52:47.336Z,10.82
2022-10-28T02:55:59.094Z,10.82
2022-10-28T02:58:43.285Z,10.84
2022-10-28T03:01:37.401Z,10.87
2022-10-28T03:05:00.234Z,10.86
2022-10-28T03:07:59.960Z,10.84
2022-10-28T03:10:59.716Z,10.82
2022-10-28T03:13:52.503Z,10.79
2022-10-28T03:16:38.498Z,10.77
2022-10-28T03:19:42.438Z,10.79
2022-10-28T03:26:10.038Z,10.79
2022-10-28T03:30:38.853Z,10.78
2022-10-28T03:32:27.175Z,10.74
2022-10-28T03:35:28.376Z,10.79
2022-10-28T03:38:26.665Z,10.79
2022-10-28T03:41:36.147Z,10.80
2022-10-28T03:47:39.581Z,10.72
2022-10-28T03:50:34.528Z,10.78
2022-10-28T03:57:02.906Z,10.78
2022-10-28T04:00:16.759Z,10.78
2022-10-28T04:03:12.288Z,10.79
2022-10-28T04:06:20.686Z,10.81
2022-10-28T04:09:46.200Z,10.79
2022-10-28T04:12:29.886Z,10.77
2022-10-28T04:15:34.553Z,10.72
2022-10-28T04:18:36.769Z,10.68
2022-10-28T04:21:15.663Z,10.61
2022-10-28T04:23:55.358Z,10.61
2022-10-28T04:26:43.785Z,10.61
2022-10-28T04:30:05.877Z,10.65
2022-10-28T04:33:27.851Z,10.64
2022-10-28T04:43:08.578Z,10.57
2022-10-28T04:46:09.172Z,10.55
2022-10-28T04:49:20.459Z,10.52
2022-10-28T04:53:42.048Z,10.52
2022-10-28T04:59:20.195Z,10.44
2022-10-28T05:02:42.527Z,10.46
2022-10-28T05:05:39.641Z,10.47
2022-10-28T05:08:44.990Z,10.51
2022-10-28T05:15:19.862Z,10.53
2022-10-28T05:18:18.216Z,10.53
2022-10-28T05:21:48.828Z,10.45
2022-10-28T05:24:48.224Z,10.38
2022-10-28T05:30:42.964Z,10.35
2022-10-28T05:37:28.380Z,10.29
2022-10-28T05:40:12.624Z,10.25
2022-10-28T05:42:56.143Z,10.21
2022-10-28T05:45:59.860Z,10.15
2022-10-28T05:48:41.859Z,10.12
2022-10-28T05:51:43.038Z,10.08
2022-10-28T05:54:19.598Z,10.05
2022-10-28T05:57:07.426Z,10.07
2022-10-28T05:59:59.857Z,10.10
2022-10-28T06:02:47.187Z,10.14
2022-10-28T06:05:47.926Z,10.22
2022-10-28T06:08:50.486Z,10.27
2022-10-28T06:11:55.042Z,10.31
2022-10-28T06:15:51.690Z,10.33
2022-10-28T06:18:32.771Z,10.28
2022-10-28T06:21:20.184Z,10.32
2022-10-28T06:29:05.411Z,10.35
2022-10-28T06:31:46.469Z,10.39
2022-10-28T06:34:57.791Z,10.48
2022-10-28T06:43:42.101Z,10.64
2022-10-28T06:45:41.178Z,10.73
2022-10-28T06:48:54.924Z,10.86
2022-10-28T06:52:09.882Z,11.01
2022-10-28T06:55:22.709Z,11.18
2022-10-28T06:58:17.309Z,11.29
2022-10-28T07:02:41.461Z,11.36
2022-10-28T07:05:55.505Z,11.46
2022-10-28T07:13:06.864Z,11.79
2022-10-28T07:16:08.581Z,11.91
2022-10-28T07:23:10.966Z,12.11
2022-10-28T07:26:29.763Z,12.17
2022-10-28T07:30:02.291Z,12.22
2022-10-28T07:36:45.008Z,12.28
2022-10-28T07:44:10.859Z,12.23
2022-10-28T07:47:35.492Z,12.26
2022-10-28T07:51:58.784Z,12.31
2022-10-28T07:56:00.156Z,12.65
2022-10-28T07:59:29.913Z,13.06
2022-10-28T08:03:09.640Z,13.43
2022-10-28T08:06:57.904Z,13.76
2022-10-28T08:19:57.027Z,14.39
2022-10-28T08:22:43.305Z,14.59
2022-10-28T08:26:24.042Z,14.77
2022-10-28T09:44:12.702Z,17.39
2022-10-28T10:09:55.860Z,19.35
2022-10-28T10:13:17.118Z,19.83
2022-10-28T10:20:15.789Z,20.54
2022-10-28T10:25:18.466Z,20.88
2022-10-28T10:31:55.715Z,21.73
2022-10-28T10:36:00.051Z,21.82
2022-10-28T11:00:32.067Z,23.38
2022-10-28T11:03:28.066Z,23.19
2022-10-28T11:13:59.125Z,22.28
2022-10-28T11:17:18.496Z,21.91
2022-10-28T11:21:03.576Z,21.53
2022-10-28T11:25:11.729Z,21.21
2022-10-28T11:29:14.264Z,20.92
2022-10-28T11:33:44.803Z,20.81
2022-10-28T11:38:59.630Z,20.72
2022-10-28T11:43:29.896Z,20.69
2022-10-28T11:46:05.046Z,20.72
2022-10-28T11:50:06.149Z,20.78
2022-10-28T11:58:32.879Z,21.00
2022-10-28T12:02:00.506Z,20.93
2022-10-28T12:05:28.249Z,20.90
2022-10-28T12:14:17.721Z,20.75
2022-10-28T12:17:15.021Z,20.80
2022-10-28T12:20:13.720Z,20.86
2022-10-28T12:22:51.292Z,20.87
2022-10-28T12:25:33.893Z,20.87
2022-10-28T12:28:13.928Z,20.91
2022-10-28T12:30:42.722Z,20.95
2022-10-28T12:33:15.358Z,20.95
2022-10-28T12:35:53.765Z,20.94
2022-10-28T12:38:44.447Z,20.96
2022-10-28T12:41:27.037Z,20.91
2022-10-28T12:44:03.999Z,20.91
2022-10-28T12:49:52.707Z,20.91
2022-10-28T12:52:48.714Z,20.91
2022-10-28T12:55:30.330Z,20.91
2022-10-28T12:58:11.379Z,20.93
2022-10-28T13:00:48.826Z,20.84
2022-10-28T13:03:16.485Z,20.85
2022-10-28T13:05:56.105Z,20.90
2022-10-28T13:08:48.366Z,20.93
2022-10-28T13:11:18.760Z,20.91
2022-10-28T13:14:04.582Z,20.89
2022-10-28T13:17:15.366Z,20.84
2022-10-28T13:20:07.795Z,20.79
2022-10-28T13:22:58.142Z,20.73
2022-10-28T13:25:37.953Z,20.71
2022-10-28T13:28:07.375Z,20.69
2022-10-28T13:30:35.091Z,20.70
2022-10-28T13:33:11.563Z,20.72
2022-10-28T13:35:39.084Z,20.76
2022-10-28T13:38:12.666Z,20.80
2022-10-28T13:40:39.942Z,20.81
2022-10-28T13:43:40.075Z,20.80
2022-10-28T13:46:07.464Z,20.74
2022-10-28T13:48:41.030Z,20.72
2022-10-28T13:51:08.346Z,20.73
2022-10-28T13:53:44.733Z,20.77
2022-10-28T13:56:34.336Z,20.82
2022-10-28T13:59:14.157Z,20.81
2022-10-28T14:01:41.602Z,20.84
2022-10-28T14:04:32.056Z,20.85
2022-10-28T14:07:05.186Z,20.80
2022-10-28T14:09:35.739Z,20.77
2022-10-28T14:12:30.260Z,20.76
2022-10-28T14:15:40.298Z,20.71
2022-10-28T14:18:37.413Z,20.66
2022-10-28T14:21:02.145Z,20.63
2022-10-28T14:23:30.399Z,20.63
2022-10-28T14:26:04.772Z,20.61
2022-10-28T14:28:32.185Z,20.58
2022-10-28T14:31:11.815Z,20.54
2022-10-28T14:33:42.403Z,20.45
2022-10-28T14:36:18.490Z,20.40
2022-10-28T14:39:19.863Z,20.34
2022-10-28T14:42:33.848Z,20.28
2022-10-28T14:45:48.075Z,20.23
2022-10-28T14:48:39.950Z,20.19
2022-10-28T14:51:14.262Z,20.13
2022-10-28T14:53:44.107Z,20.12
2022-10-28T14:56:21.197Z,20.06
2022-10-28T14:58:49.731Z,20.04
2022-10-28T15:01:17.248Z,20.01
2022-10-28T15:04:12.462Z,19.95
2022-10-28T15:06:46.324Z,19.87
2022-10-28T15:09:22.268Z,19.84
2022-10-28T15:12:10.678Z,19.78
2022-10-28T15:14:51.658Z,19.73
2022-10-28T15:17:20.959Z,19.68
2022-10-28T15:19:52.694Z,19.61
2022-10-28T15:22:28.771Z,19.58
2022-10-28T15:25:17.530Z,19.56
2022-10-28T15:27:49.772Z,19.51
2022-10-28T15:30:24.859Z,19.46
2022-10-28T15:33:14.191Z,19.40
2022-10-28T15:35:41.831Z,19.35
2022-10-28T15:38:27.502Z,19.31
2022-10-28T15:40:55.230Z,19.21
2022-10-28T15:43:29.035Z,19.17
2022-10-28T15:46:16.202Z,19.14
2022-10-28T15:48:43.675Z,19.07
2022-10-28T15:51:17.192Z,19.01
2022-10-28T15:53:56.203Z,18.96
2022-10-28T15:56:26.180Z,18.93
2022-10-28T15:59:24.305Z,18.92
2022-10-28T16:07:08.379Z,18.62
2022-10-28T16:09:43.680Z,18.56
2022-10-28T16:12:22.778Z,18.54
2022-10-28T16:14:56.803Z,18.48
2022-10-28T16:17:28.661Z,18.43
2022-10-28T16:20:19.037Z,18.39
2022-10-28T16:22:47.866Z,18.31
2022-10-28T16:25:21.767Z,18.26
2022-10-28T16:27:50.655Z,18.22
2022-10-28T16:30:18.190Z,18.17
2022-10-28T16:32:48.557Z,18.12
2022-10-28T16:35:18.329Z,18.08
2022-10-28T16:37:50.673Z,18.04
2022-10-28T16:43:19.308Z,17.93
2022-10-28T16:45:49.065Z,17.87
2022-10-28T16:48:18.979Z,17.83
2022-10-28T16:50:53.682Z,17.77
2022-10-28T16:53:21.818Z,17.72
2022-10-28T16:55:49.437Z,17.67
2022-10-28T16:58:18.761Z,17.63
2022-10-28T17:00:47.106Z,17.60
2022-10-28T17:03:15.040Z,17.59
2022-10-28T17:05:44.413Z,17.55
2022-10-28T17:08:12.068Z,17.50
2022-10-28T17:10:41.338Z,17.47
2022-10-28T17:13:12.911Z,17.45
2022-10-28T17:15:41.062Z,17.44
2022-10-28T17:18:11.781Z,17.33
2022-10-28T17:20:39.194Z,17.30
2022-10-28T17:23:06.809Z,17.30
2022-10-28T17:25:34.336Z,17.29
2022-10-28T17:28:01.786Z,17.26
2022-10-28T17:30:30.482Z,17.21
2022-10-28T17:32:57.992Z,17.17
2022-10-28T17:35:27.291Z,17.14
2022-10-28T17:37:54.804Z,17.09
2022-10-28T17:40:22.638Z,17.05
2022-10-28T17:42:49.992Z,17.03
2022-10-28T17:45:21.008Z,17.03
2022-10-28T17:47:49.609Z,17.00
2022-10-28T17:50:17.457Z,16.98
2022-10-28T17:52:44.807Z,16.96
2022-10-28T17:55:12.224Z,16.95
2022-10-28T17:57:39.758Z,16.93
2022-10-28T18:00:08.723Z,16.91
2022-10-28T18:02:41.877Z,16.89
2022-10-28T18:05:09.401Z,16.91
2022-10-28T18:07:36.739Z,16.93
2022-10-28T18:10:04.939Z,16.94
2022-10-28T18:12:32.790Z,16.96
2022-10-28T18:15:00.192Z,16.98
2022-10-28T18:17:27.495Z,17.00
2022-10-28T18:19:57.168Z,16.97
2022-10-28T18:24:57.270Z,16.92
2022-10-28T18:27:24.624Z,16.89
2022-10-28T18:29:52.008Z,16.86
2022-10-28T18:32:19.915Z,16.81
2022-10-28T18:34:47.379Z,16.78
2022-10-28T18:37:14.924Z,16.75
2022-10-28T18:39:42.265Z,16.72
2022-10-28T18:42:12.226Z,16.68
2022-10-28T18:44:40.807Z,16.63
2022-10-28T18:47:08.276Z,16.59
2022-10-28T18:49:35.699Z,16.58
2022-10-28T18:52:03.358Z,16.58
2022-10-28T18:54:32.744Z,16.56
2022-10-28T18:57:00.112Z,16.54
2022-10-28T18:59:27.457Z,16.53
2022-10-28T19:01:56.077Z,16.51
2022-10-28T19:04:23.611Z,16.50
2022-10-28T19:06:51.172Z,16.49
2022-10-28T19:09:18.588Z,16.45
2022-10-28T19:11:45.947Z,16.40
2022-10-28T19:14:13.499Z,16.35
2022-10-28T19:16:40.904Z,16.31
2022-10-28T19:19:08.255Z,16.27
2022-10-28T19:21:35.685Z,16.23
2022-10-28T19:24:04.648Z,16.19
2022-10-28T19:26:33.235Z,16.14
2022-10-28T19:29:00.605Z,16.10
2022-10-28T19:31:28.033Z,16.08
2022-10-28T19:33:56.573Z,16.05
2022-10-28T19:36:27.317Z,15.99
2022-10-28T19:38:56.560Z,15.90
2022-10-28T19:41:29.310Z,15.81
2022-10-28T19:44:02.413Z,15.71
2022-10-28T19:46:34.361Z,15.61
2022-10-28T19:49:05.155Z,15.53
2022-10-28T19:51:36.972Z,15.46
2022-10-28T19:54:10.366Z,15.41
2022-10-28T19:56:38.879Z,15.36
2022-10-28T19:59:06.626Z,15.31
2022-10-28T20:01:37.806Z,15.29
2022-10-28T20:04:08.004Z,15.25
2022-10-28T20:06:39.545Z,15.21
2022-10-28T20:09:07.398Z,15.19
2022-10-28T20:11:37.753Z,15.19
2022-10-28T20:14:10.891Z,15.17
2022-10-28T20:16:41.898Z,15.13
2022-10-28T20:19:09.906Z,15.10
2022-10-28T20:21:38.530Z,15.06
2022-10-28T20:24:08.311Z,15.02
2022-10-28T20:26:38.280Z,14.99
2022-10-28T20:29:08.041Z,14.99
2022-10-28T20:31:37.895Z,14.97
2022-10-28T20:34:06.692Z,14.93
2022-10-28T20:36:35.354Z,14.89
2022-10-28T20:39:11.390Z,14.83
2022-10-28T20:41:40.298Z,14.80
2022-10-28T20:44:08.153Z,14.80
2022-10-28T20:46:37.384Z,14.81
2022-10-28T20:49:09.228Z,14.80
2022-10-28T20:51:36.761Z,14.77
2022-10-28T20:54:04.670Z,14.74
2022-10-28T20:56:36.652Z,14.73
2022-10-28T20:59:05.530Z,14.68
2022-10-28T21:01:36.748Z,14.61
2022-10-28T21:04:09.150Z,14.55
2022-10-28T21:06:39.752Z,14.48
2022-10-28T21:09:08.406Z,14.42
2022-10-28T21:11:36.001Z,14.38
2022-10-28T21:14:03.434Z,14.34
2022-10-28T21:16:31.299Z,14.29
2022-10-28T21:18:59.124Z,14.24
2022-10-28T21:21:28.754Z,14.21
2022-10-28T21:23:58.863Z,14.17
2022-10-28T21:26:26.743Z,14.14
2022-10-28T21:28:55.929Z,14.11
2022-10-28T21:31:23.838Z,14.07
2022-10-28T21:33:51.209Z,14.04
2022-10-28T21:36:20.754Z,14.01
2022-10-28T21:38:51.812Z,13.99
2022-10-28T21:41:20.343Z,13.98
2022-10-28T21:43:50.518Z,13.94
2022-10-28T21:46:20.328Z,13.92
2022-10-28T21:48:47.789Z,13.91
2022-10-28T21:51:16.966Z,13.92
2022-10-28T21:53:44.786Z,13.89
2022-10-28T21:56:19.833Z,13.89
2022-10-28T21:58:49.512Z,13.88
2022-10-28T22:01:22.392Z,13.87
2022-10-28T22:03:51.743Z,13.86
2022-10-28T22:06:19.266Z,13.86
2022-10-28T22:08:47.184Z,13.86
2022-10-28T22:11:20.732Z,13.87
2022-10-28T22:13:58.684Z,13.88
2022-10-28T22:16:29.231Z,13.85
2022-10-28T22:19:04.918Z,13.86
2022-10-28T22:21:39.081Z,13.83
2022-10-28T22:24:07.224Z,13.77
2022-10-28T22:26:34.593Z,13.72
2022-10-28T22:29:02.165Z,13.68
2022-10-28T22:31:31.917Z,13.66
2022-10-28T22:34:00.135Z,13.62
2022-10-28T22:36:29.587Z,13.58
2022-10-28T22:38:57.632Z,13.58
2022-10-28T22:41:29.927Z,13.58
2022-10-28T22:44:00.328Z,13.60
2022-10-28T22:46:32.794Z,13.61
2022-10-28T22:49:00.152Z,13.60
2022-10-28T22:51:27.546Z,13.57
2022-10-28T22:53:55.046Z,13.55
2022-10-28T22:56:25.357Z,13.52
2022-10-28T22:58:59.343Z,13.49
2022-10-28T23:01:28.681Z,13.47
2022-10-28T23:03:56.674Z,13.47
2022-10-28T23:06:26.606Z,13.46
2022-10-28T23:08:54.691Z,13.42
2022-10-28T23:11:22.957Z,13.38
2022-10-28T23:13:52.689Z,13.36
2022-10-28T23:16:21.939Z,13.34
2022-10-28T23:18:49.745Z,13.31
2022-10-28T23:21:25.565Z,13.30
2022-10-28T23:24:00.018Z,13.27
2022-10-28T23:26:29.495Z,13.23
2022-10-28T23:28:59.471Z,13.22
2022-10-28T23:31:27.955Z,13.24
2022-10-28T23:33:56.298Z,13.27
2022-10-28T23:36:23.842Z,13.27
2022-10-28T23:38:51.920Z,13.28
2022-10-28T23:41:20.397Z,13.31
2022-10-28T23:43:48.798Z,13.31
2022-10-28T23:46:17.108Z,13.30
2022-10-28T23:48:44.445Z,13.30
2022-10-28T23:51:11.888Z,13.31
2022-10-28T23:53:39.316Z,13.32
2022-10-28T23:56:07.025Z,13.32
2022-10-28T23:58:34.380Z,13.33
